createdAt,value
2022-10-15T00:03:10.568Z,100816.00
2022-10-15T00:07:59.987Z,100812.53
2022-10-15T00:12:52.104Z,100807.41
2022-10-15T00:17:42.728Z,100809.13
2022-10-15T00:22:32.477Z,100809.16
2022-10-15T00:27:21.935Z,100803.97
2022-10-15T00:32:17.423Z,100803.97
2022-10-15T00:37:06.884Z,100804.84
2022-10-15T00:41:56.378Z,100807.44
2022-10-15T00:46:51.090Z,100804.00
2022-10-15T00:51:50.722Z,100798.78
2022-10-15T00:56:40.712Z,100801.38
2022-10-15T01:01:30.277Z,100797.91
2022-10-15T01:06:20.233Z,100793.59
2022-10-15T01:11:20.383Z,100792.72
2022-10-15T01:21:09.730Z,100781.50
2022-10-15T01:26:09.258Z,100778.06
2022-10-15T01:31:02.988Z,100772.88
2022-10-15T01:35:56.758Z,100757.34
2022-10-15T01:40:50.372Z,100746.97
2022-10-15T01:45:43.243Z,100755.59
2022-10-15T01:50:54.956Z,100762.53
2022-10-15T01:55:45.614Z,100763.38
2022-10-15T02:00:37.588Z,100759.94
2022-10-15T02:05:30.574Z,100759.94
2022-10-15T02:10:26.089Z,100746.94
2022-10-15T02:15:19.209Z,100742.63
2022-10-15T02:20:12.588Z,100740.00
2022-10-15T02:25:07.055Z,100719.25
2022-10-15T02:30:00.444Z,100684.81
2022-10-15T02:34:52.259Z,100707.16
2022-10-15T02:39:41.768Z,100670.06
2022-10-15T02:44:31.803Z,100685.53
2022-10-15T02:49:23.802Z,100676.94
2022-10-15T02:54:14.086Z,100669.19
2022-10-15T02:59:06.014Z,100683.03
2022-10-15T03:03:56.219Z,100679.63
2022-10-15T03:08:48.480Z,100670.16
2022-10-15T03:13:38.701Z,100657.22
2022-10-15T03:18:30.995Z,100671.91
2022-10-15T03:23:20.563Z,100665.03
2022-10-15T03:28:12.754Z,100670.22
2022-10-15T03:33:04.862Z,100660.75
2022-10-15T03:37:54.824Z,100660.75
2022-10-15T03:42:46.759Z,100672.88
2022-10-15T03:47:39.237Z,100672.88
2022-10-15T03:52:33.002Z,100679.78
2022-10-15T03:57:22.768Z,100682.41
2022-10-15T04:02:17.560Z,100689.31
2022-10-15T04:07:11.969Z,100700.56
2022-10-15T04:12:01.820Z,100703.16
2022-10-15T04:16:51.273Z,100702.28
2022-10-15T04:21:46.711Z,100688.50
2022-10-15T04:26:52.790Z,100692.81
2022-10-15T04:31:45.265Z,100691.09
2022-10-15T04:36:35.177Z,100678.16
2022-10-15T04:41:53.663Z,100680.78
2022-10-15T04:46:52.208Z,100676.44
2022-10-15T04:52:15.157Z,100671.25
2022-10-15T04:57:15.554Z,100672.97
2022-10-15T05:02:05.119Z,100671.22
2022-10-15T05:06:55.007Z,100667.78
2022-10-15T05:11:47.049Z,100666.94
2022-10-15T05:16:39.608Z,100660.00
2022-10-15T05:21:31.271Z,100664.31
2022-10-15T05:26:27.865Z,100665.19
2022-10-15T05:31:19.962Z,100660.00
2022-10-15T05:36:17.337Z,100664.31
2022-10-15T05:41:08.744Z,100665.16
2022-10-15T05:46:01.711Z,100657.41
2022-10-15T05:50:51.230Z,100660.81
2022-10-15T05:55:50.574Z,100660.81
2022-10-15T06:00:42.268Z,100654.78
2022-10-15T06:05:37.734Z,100654.78
2022-10-15T06:10:31.333Z,100658.22
2022-10-15T06:15:23.430Z,100649.59
2022-10-15T06:20:13.893Z,100661.66
2022-10-15T06:25:03.541Z,100653.91
2022-10-15T06:29:53.100Z,100651.31
2022-10-15T06:34:45.300Z,100651.28
2022-10-15T06:39:35.863Z,100652.13
2022-10-15T06:44:25.396Z,100649.50
2022-10-15T06:49:14.919Z,100650.31
2022-10-15T06:54:08.186Z,100663.28
2022-10-15T06:58:59.837Z,100650.31
2022-10-15T07:03:51.949Z,100652.00
2022-10-15T07:08:44.992Z,100653.72
2022-10-15T07:13:37.049Z,100655.41
2022-10-15T07:18:26.910Z,100641.56
2022-10-15T07:23:16.735Z,100642.38
2022-10-15T07:28:06.863Z,100644.09
2022-10-15T07:32:59.390Z,100642.28
2022-10-15T07:37:50.714Z,100624.97
2022-10-15T07:42:42.095Z,100634.41
2022-10-15T07:47:31.887Z,100628.25
2022-10-15T07:52:24.542Z,100623.00
2022-10-15T07:57:14.448Z,100608.25
2022-10-15T08:02:06.121Z,100598.69
2022-10-15T08:06:56.857Z,100596.06
2022-10-15T08:11:49.047Z,100593.38
2022-10-15T08:16:40.255Z,100599.44
2022-10-15T08:21:31.010Z,100599.38
2022-10-15T08:26:20.481Z,100595.88
2022-10-15T08:31:12.541Z,100593.19
2022-10-15T08:36:01.916Z,100585.34
2022-10-15T08:40:51.803Z,100582.66
2022-10-15T08:45:45.188Z,100580.00
2022-10-15T08:50:48.291Z,100571.25
2022-10-15T08:55:42.470Z,100573.66
2022-10-15T09:00:33.691Z,100577.84
2022-10-15T09:05:29.060Z,100574.25
2022-10-15T09:10:30.653Z,100579.41
2022-10-15T09:15:25.403Z,100557.75
2022-10-15T09:20:21.202Z,100555.22
2022-10-15T09:25:32.136Z,100552.69
2022-10-15T09:30:30.258Z,100554.44
2022-10-15T09:35:21.643Z,100550.16
2022-10-15T09:40:18.958Z,100545.00
2022-10-15T09:45:13.428Z,100531.13
2022-10-15T09:50:03.801Z,100528.56
2022-10-15T09:54:57.744Z,100523.41
2022-10-15T09:59:55.294Z,100526.00
2022-10-15T10:04:47.455Z,100534.72
2022-10-15T10:09:39.129Z,100528.69
2022-10-15T10:14:30.840Z,100520.91
2022-10-15T10:19:20.462Z,100511.34
2022-10-15T10:24:30.325Z,100521.66
2022-10-15T10:29:33.620Z,100524.25
2022-10-15T10:34:28.675Z,100525.91
2022-10-15T10:39:24.300Z,100523.25
2022-10-15T10:44:22.235Z,100524.88
2022-10-15T10:49:11.992Z,100529.09
2022-10-15T10:54:03.364Z,100510.88
2022-10-15T10:59:02.413Z,100506.41
2022-10-15T11:03:54.712Z,100499.44
2022-10-15T11:08:48.988Z,100495.00
2022-10-15T11:13:47.609Z,100507.06
2022-10-15T11:18:44.411Z,100506.91
2022-10-15T11:23:43.689Z,100508.56
2022-10-15T11:28:44.858Z,100501.50
2022-10-15T11:33:46.609Z,100505.72
2022-10-15T11:38:42.830Z,100507.41
2022-10-15T11:43:40.254Z,100506.44
2022-10-15T11:48:37.552Z,100513.28
2022-10-15T11:53:33.410Z,100525.09
2022-10-15T11:58:31.455Z,100511.91
2022-10-15T12:03:22.302Z,100507.38
2022-10-15T12:08:14.863Z,100504.56
2022-10-15T12:13:09.223Z,100521.88
2022-10-15T12:18:04.567Z,100523.50
2022-10-15T12:22:58.133Z,100531.19
2022-10-15T12:27:47.463Z,100519.78
2022-10-15T12:32:40.427Z,100521.38
2022-10-15T12:37:36.725Z,100534.34
2022-10-15T12:42:29.735Z,100539.59
2022-10-15T12:47:39.968Z,100555.22
2022-10-15T12:52:45.087Z,100564.91
2022-10-15T12:57:53.404Z,100559.81
2022-10-15T13:02:49.018Z,100544.38
2022-10-15T13:07:43.965Z,100560.19
2022-10-15T13:12:35.755Z,100564.66
2022-10-15T13:17:26.470Z,100575.84
2022-10-15T13:22:26.711Z,100581.75
2022-10-15T13:27:18.032Z,100589.44
2022-10-15T13:32:16.711Z,100597.13
2022-10-15T13:37:08.045Z,100590.88
2022-10-15T13:42:12.703Z,100588.94
2022-10-15T13:47:04.094Z,100602.75
2022-10-15T13:51:56.502Z,100611.44
2022-10-15T13:56:50.263Z,100626.97
2022-10-15T14:01:49.445Z,100623.56
2022-10-15T14:06:42.273Z,100620.16
2022-10-15T14:11:33.497Z,100624.63
2022-10-15T14:16:25.405Z,100644.63
2022-10-15T14:21:18.698Z,100648.00
2022-10-15T14:26:08.629Z,100648.84
2022-10-15T14:30:58.375Z,100652.38
2022-10-15T14:35:48.600Z,100664.63
2022-10-15T14:40:41.887Z,100659.47
2022-10-15T14:45:33.293Z,100668.19
2022-10-15T14:50:23.553Z,100664.69
2022-10-15T14:55:18.274Z,100670.75
2022-10-15T15:00:18.520Z,100667.19
2022-10-15T15:05:21.120Z,100673.28
2022-10-15T15:10:14.822Z,100679.34
2022-10-15T15:15:05.363Z,100675.06
2022-10-15T15:20:01.890Z,100682.94
2022-10-15T15:24:51.825Z,100684.75
2022-10-15T15:29:43.657Z,100682.25
2022-10-15T15:34:35.209Z,100689.34
2022-10-15T15:39:28.802Z,100686.84
2022-10-15T15:44:19.336Z,100693.00
2022-10-15T15:49:09.114Z,100687.03
2022-10-15T15:54:04.834Z,100687.91
2022-10-15T15:58:58.707Z,100690.53
2022-10-15T16:03:48.761Z,100700.06
2022-10-15T16:08:39.862Z,100697.56
2022-10-15T16:13:29.293Z,100712.38
2022-10-15T16:18:21.274Z,100715.97
2022-10-15T16:23:10.612Z,100720.41
2022-10-15T16:28:01.963Z,100719.63
2022-10-15T16:32:51.618Z,100725.81
2022-10-15T16:37:43.606Z,100732.88
2022-10-15T16:42:33.024Z,100733.00
2022-10-15T16:47:23.086Z,100739.19
2022-10-15T16:52:13.541Z,100742.69
2022-10-15T16:57:05.635Z,100741.94
2022-10-15T17:01:55.972Z,100737.69
2022-10-15T17:06:45.902Z,100749.03
2022-10-15T17:11:36.266Z,100766.44
2022-10-15T17:16:29.757Z,100776.91
2022-10-15T17:21:20.690Z,100781.34
2022-10-15T17:26:11.876Z,100783.13
2022-10-15T17:31:04.672Z,100801.41
2022-10-15T17:35:56.627Z,100807.50
2022-10-15T17:40:46.070Z,100819.69
2022-10-15T17:45:35.478Z,100832.72
2022-10-15T17:50:24.920Z,100829.28
2022-10-15T17:55:17.185Z,100841.47
2022-10-15T18:00:08.443Z,100839.69
2022-10-15T18:05:01.860Z,100846.59
2022-10-15T18:09:51.336Z,100844.78
2022-10-15T18:14:43.387Z,100857.72
2022-10-15T18:19:32.957Z,100855.91
2022-10-15T18:24:23.558Z,100859.34
2022-10-15T18:29:13.250Z,100859.28
2022-10-15T18:34:06.319Z,100855.81
2022-10-15T18:38:56.281Z,100860.09
2022-10-15T18:43:46.215Z,100864.44
2022-10-15T18:48:36.860Z,100860.06
2022-10-15T18:53:29.018Z,100881.72
2022-10-15T18:58:20.079Z,100878.22
2022-10-15T19:03:09.651Z,100872.94
2022-10-15T19:07:59.059Z,100884.16
2022-10-15T19:12:51.540Z,100876.31
2022-10-15T19:17:41.035Z,100884.94
2022-10-15T19:22:31.048Z,100877.97
2022-10-15T19:27:20.482Z,100882.28
2022-10-15T19:32:12.472Z,100872.78
2022-10-15T19:37:01.893Z,100876.28
2022-10-15T19:41:53.497Z,100887.56
2022-10-15T19:46:43.478Z,100899.69
2022-10-15T19:51:35.603Z,100905.81
2022-10-15T19:56:26.387Z,100911.06
2022-10-15T20:01:15.883Z,100895.47
2022-10-15T20:06:05.510Z,100907.66
2022-10-15T20:10:57.898Z,100902.50
2022-10-15T20:15:48.144Z,100897.28
2022-10-15T20:20:37.683Z,100896.41
2022-10-15T20:25:27.120Z,100905.94
2022-10-15T20:30:19.152Z,100901.59
2022-10-15T20:35:09.062Z,100912.00
2022-10-15T20:39:59.909Z,100915.47
2022-10-15T20:44:50.235Z,100925.88
2022-10-15T20:49:45.109Z,100923.25
2022-10-15T20:54:35.006Z,100925.00
2022-10-15T20:59:27.899Z,100930.25
2022-10-15T21:04:19.679Z,100938.94
2022-10-15T21:09:11.929Z,100948.47
2022-10-15T21:14:01.810Z,100952.84
2022-10-15T21:18:51.186Z,100951.97
2022-10-15T21:23:41.482Z,100963.22
2022-10-15T21:28:33.640Z,100966.72
2022-10-15T21:33:23.149Z,100968.44
2022-10-15T21:38:12.522Z,100976.22
2022-10-15T21:43:01.924Z,100977.06
2022-10-15T21:47:53.947Z,100981.38
2022-10-15T21:52:43.832Z,100989.13
2022-10-15T21:57:33.775Z,100994.31
2022-10-15T22:02:23.491Z,100997.81
2022-10-15T22:07:15.584Z,100996.97
2022-10-15T22:12:05.559Z,101004.78
2022-10-15T22:16:55.322Z,100993.56
2022-10-15T22:21:45.203Z,100991.88
2022-10-15T22:26:38.863Z,101000.56
2022-10-15T22:31:28.948Z,100983.31
2022-10-15T22:36:19.504Z,100984.22
2022-10-15T22:41:09.956Z,100982.53
2022-10-15T22:46:04.382Z,100986.06
2022-10-15T22:50:57.876Z,100995.63
2022-10-15T22:55:56.975Z,100999.97
2022-10-15T23:00:46.456Z,100990.50
2022-10-15T23:05:38.775Z,100999.16
2022-10-15T23:10:28.154Z,101006.13
2022-10-15T23:15:17.926Z,101006.97
2022-10-15T23:20:07.853Z,100998.31
2022-10-15T23:24:59.874Z,100998.34
2022-10-15T23:29:56.851Z,101002.69
2022-10-15T23:34:56.996Z,100992.31
2022-10-15T23:39:46.668Z,101004.44
2022-10-15T23:49:28.065Z,101006.16
2022-10-15T23:54:18.532Z,101013.94
2022-10-15T23:59:08.298Z,101008.75
